sensor_id;sensor_type;location;lat;lon;timestamp;temperature;humidity
78992;DHT22;72820;44.838;37.674;2023-09-19T00:00:33;16.44;57.80
78992;DHT22;72820;44.838;37.674;2023-09-19T00:01:34;16.44;57.93
78992;DHT22;72820;44.838;37.674;2023-09-19T00:02:36;16.41;57.91
78992;DHT22;72820;44.838;37.674;2023-09-19T00:03:37;16.40;58.23
78992;DHT22;72820;44.838;37.674;2023-09-19T00:04:39;16.40;57.89
78992;DHT22;72820;44.838;37.674;2023-09-19T00:05:41;16.35;58.11
78992;DHT22;72820;44.838;37.674;2023-09-19T00:06:45;16.35;58.20
78992;DHT22;72820;44.838;37.674;2023-09-19T00:07:48;16.36;57.97
78992;DHT22;72820;44.838;37.674;2023-09-19T00:08:52;16.36;58.29
78992;DHT22;72820;44.838;37.674;2023-09-19T00:09:54;16.32;58.29
78992;DHT22;72820;44.838;37.674;2023-09-19T00:10:56;16.32;58.38
78992;DHT22;72820;44.838;37.674;2023-09-19T00:12:07;16.32;58.38
78992;DHT22;72820;44.838;37.674;2023-09-19T00:13:10;16.31;58.43
78992;DHT22;72820;44.838;37.674;2023-09-19T00:14:15;16.31;58.47
78992;DHT22;72820;44.838;37.674;2023-09-19T00:15:16;16.27;58.40
78992;DHT22;72820;44.838;37.674;2023-09-19T00:16:18;16.24;58.43
78992;DHT22;72820;44.838;37.674;2023-09-19T00:17:20;16.22;58.73
78992;DHT22;72820;44.838;37.674;2023-09-19T00:18:21;16.21;58.48
78992;DHT22;72820;44.838;37.674;2023-09-19T00:19:24;16.24;58.52
78992;DHT22;72820;44.838;37.674;2023-09-19T00:20:25;16.24;58.52
78992;DHT22;72820;44.838;37.674;2023-09-19T00:21:27;16.18;58.81
78992;DHT22;72820;44.838;37.674;2023-09-19T00:22:29;16.20;58.62
78992;DHT22;72820;44.838;37.674;2023-09-19T00:23:30;16.17;58.71
78992;DHT22;72820;44.838;37.674;2023-09-19T00:24:35;16.17;58.77
78992;DHT22;72820;44.838;37.674;2023-09-19T00:25:36;16.16;59.00
78992;DHT22;72820;44.838;37.674;2023-09-19T00:26:38;16.14;58.97
78992;DHT22;72820;44.838;37.674;2023-09-19T00:27:39;16.14;59.04
78992;DHT22;72820;44.838;37.674;2023-09-19T00:28:40;16.13;59.09
78992;DHT22;72820;44.838;37.674;2023-09-19T00:29:42;16.11;59.06
78992;DHT22;72820;44.838;37.674;2023-09-19T00:30:44;16.11;59.36
78992;DHT22;72820;44.838;37.674;2023-09-19T00:31:45;16.14;59.05
78992;DHT22;72820;44.838;37.674;2023-09-19T00:32:47;16.14;58.90
78992;DHT22;72820;44.838;37.674;2023-09-19T00:33:49;16.10;58.94
78992;DHT22;72820;44.838;37.674;2023-09-19T00:34:50;16.10;59.10
78992;DHT22;72820;44.838;37.674;2023-09-19T00:35:52;16.08;59.17
78992;DHT22;72820;44.838;37.674;2023-09-19T00:36:54;16.03;59.37
78992;DHT22;72820;44.838;37.674;2023-09-19T00:37:56;16.04;59.35
78992;DHT22;72820;44.838;37.674;2023-09-19T00:38:57;16.04;59.57
78992;DHT22;72820;44.838;37.674;2023-09-19T00:39:58;16.03;59.43
78992;DHT22;72820;44.838;37.674;2023-09-19T00:41:00;16.03;59.46
78992;DHT22;72820;44.838;37.674;2023-09-19T00:42:01;16.00;59.73
78992;DHT22;72820;44.838;37.674;2023-09-19T00:43:06;15.98;59.83
78992;DHT22;72820;44.838;37.674;2023-09-19T00:44:07;15.97;59.71
78992;DHT22;72820;44.838;37.674;2023-09-19T00:45:09;15.97;59.64
78992;DHT22;72820;44.838;37.674;2023-09-19T00:46:17;15.93;59.87
78992;DHT22;72820;44.838;37.674;2023-09-19T00:47:18;15.93;59.84
78992;DHT22;72820;44.838;37.674;2023-09-19T00:48:21;15.91;59.96
78992;DHT22;72820;44.838;37.674;2023-09-19T00:49:22;15.90;59.95
78992;DHT22;72820;44.838;37.674;2023-09-19T00:50:25;15.91;59.85
78992;DHT22;72820;44.838;37.674;2023-09-19T00:51:27;15.91;59.91
78992;DHT22;72820;44.838;37.674;2023-09-19T00:52:28;15.91;59.85
78992;DHT22;72820;44.838;37.674;2023-09-19T00:53:30;15.90;59.98
78992;DHT22;72820;44.838;37.674;2023-09-19T00:54:32;15.87;60.01
78992;DHT22;72820;44.838;37.674;2023-09-19T00:55:35;15.86;60.05
78992;DHT22;72820;44.838;37.674;2023-09-19T00:56:38;15.83;60.38
78992;DHT22;72820;44.838;37.674;2023-09-19T00:57:42;15.82;60.33
78992;DHT22;72820;44.838;37.674;2023-09-19T00:58:45;15.83;60.37
78992;DHT22;72820;44.838;37.674;2023-09-19T00:59:48;15.86;60.02
78992;DHT22;72820;44.838;37.674;2023-09-19T01:00:52;15.87;60.20
78992;DHT22;72820;44.838;37.674;2023-09-19T01:01:54;15.85;59.87
78992;DHT22;72820;44.838;37.674;2023-09-19T01:02:57;15.86;60.15
78992;DHT22;72820;44.838;37.674;2023-09-19T01:03:58;15.85;60.13
78992;DHT22;72820;44.838;37.674;2023-09-19T01:05:00;15.80;60.16
78992;DHT22;72820;44.838;37.674;2023-09-19T01:06:02;15.79;60.38
78992;DHT22;72820;44.838;37.674;2023-09-19T01:07:04;15.76;60.46
78992;DHT22;72820;44.838;37.674;2023-09-19T01:08:06;15.76;60.47
78992;DHT22;72820;44.838;37.674;2023-09-19T01:09:08;15.74;60.53
78992;DHT22;72820;44.838;37.674;2023-09-19T01:10:11;15.70;60.80
78992;DHT22;72820;44.838;37.674;2023-09-19T01:11:43;15.70;60.54
78992;DHT22;72820;44.838;37.674;2023-09-19T01:13:48;15.66;60.92
78992;DHT22;72820;44.838;37.674;2023-09-19T01:15:06;15.62;60.85
78992;DHT22;72820;44.838;37.674;2023-09-19T01:17:30;15.58;61.18
78992;DHT22;72820;44.838;37.674;2023-09-19T01:18:52;15.55;61.24
78992;DHT22;72820;44.838;37.674;2023-09-19T01:21:29;15.55;61.39
78992;DHT22;72820;44.838;37.674;2023-09-19T01:29:17;15.44;61.91
78992;DHT22;72820;44.838;37.674;2023-09-19T01:30:33;15.39;61.88
78992;DHT22;72820;44.838;37.674;2023-09-19T01:31:37;15.38;61.97
78992;DHT22;72820;44.838;37.674;2023-09-19T01:32:40;15.36;61.97
78992;DHT22;72820;44.838;37.674;2023-09-19T01:34:02;15.34;62.13
78992;DHT22;72820;44.838;37.674;2023-09-19T01:35:08;15.32;62.21
78992;DHT22;72820;44.838;37.674;2023-09-19T01:36:13;15.32;62.22
78992;DHT22;72820;44.838;37.674;2023-09-19T01:37:17;15.32;62.18
78992;DHT22;72820;44.838;37.674;2023-09-19T01:38:28;15.32;62.33
78992;DHT22;72820;44.838;37.674;2023-09-19T01:39:29;15.31;62.32
78992;DHT22;72820;44.838;37.674;2023-09-19T01:40:31;15.28;62.22
78992;DHT22;72820;44.838;37.674;2023-09-19T01:43:47;15.20;62.41
78992;DHT22;72820;44.838;37.674;2023-09-19T01:45:13;15.21;62.58
78992;DHT22;72820;44.838;37.674;2023-09-19T01:46:35;15.17;62.59
78992;DHT22;72820;44.838;37.674;2023-09-19T01:47:54;15.20;63.21
78992;DHT22;72820;44.838;37.674;2023-09-19T01:51:53;15.16;63.24
78992;DHT22;72820;44.838;37.674;2023-09-19T01:53:04;15.08;63.21
78992;DHT22;72820;44.838;37.674;2023-09-19T01:54:10;15.08;63.04
78992;DHT22;72820;44.838;37.674;2023-09-19T01:55:14;15.08;63.10
78992;DHT22;72820;44.838;37.674;2023-09-19T01:56:27;15.07;63.50
78992;DHT22;72820;44.838;37.674;2023-09-19T01:57:31;15.06;63.16
78992;DHT22;72820;44.838;37.674;2023-09-19T01:58:45;15.03;63.42
78992;DHT22;72820;44.838;37.674;2023-09-19T01:59:57;15.03;63.37
78992;DHT22;72820;44.838;37.674;2023-09-19T02:01:00;15.00;63.35
78992;DHT22;72820;44.838;37.674;2023-09-19T02:02:03;14.99;63.44
78992;DHT22;72820;44.838;37.674;2023-09-19T02:03:07;14.99;63.67
78992;DHT22;72820;44.838;37.674;2023-09-19T02:04:09;14.97;63.56
78992;DHT22;72820;44.838;37.674;2023-09-19T02:05:11;14.97;63.54
78992;DHT22;72820;44.838;37.674;2023-09-19T02:06:14;14.94;63.68
78992;DHT22;72820;44.838;37.674;2023-09-19T02:07:16;14.97;63.62
78992;DHT22;72820;44.838;37.674;2023-09-19T02:08:19;14.99;63.73
78992;DHT22;72820;44.838;37.674;2023-09-19T02:09:21;14.96;63.46
78992;DHT22;72820;44.838;37.674;2023-09-19T02:10:22;14.97;63.62
78992;DHT22;72820;44.838;37.674;2023-09-19T02:11:24;14.94;63.78
78992;DHT22;72820;44.838;37.674;2023-09-19T02:12:26;14.97;63.68
78992;DHT22;72820;44.838;37.674;2023-09-19T02:13:27;14.93;63.60
78992;DHT22;72820;44.838;37.674;2023-09-19T02:14:29;14.94;63.81
78992;DHT22;72820;44.838;37.674;2023-09-19T02:15:30;14.96;63.96
78992;DHT22;72820;44.838;37.674;2023-09-19T02:16:36;14.97;63.95
78992;DHT22;72820;44.838;37.674;2023-09-19T02:17:38;14.93;63.92
78992;DHT22;72820;44.838;37.674;2023-09-19T02:18:40;14.94;63.85
78992;DHT22;72820;44.838;37.674;2023-09-19T02:19:41;14.94;63.83
78992;DHT22;72820;44.838;37.674;2023-09-19T02:20:43;14.96;63.72
78992;DHT22;72820;44.838;37.674;2023-09-19T02:21:44;14.96;63.89
78992;DHT22;72820;44.838;37.674;2023-09-19T02:22:45;14.97;63.86
78992;DHT22;72820;44.838;37.674;2023-09-19T02:23:47;15.00;63.81
78992;DHT22;72820;44.838;37.674;2023-09-19T02:24:49;14.97;63.58
78992;DHT22;72820;44.838;37.674;2023-09-19T02:25:53;14.99;63.76
78992;DHT22;72820;44.838;37.674;2023-09-19T02:26:56;14.97;63.91
78992;DHT22;72820;44.838;37.674;2023-09-19T02:27:58;14.97;63.92
78992;DHT22;72820;44.838;37.674;2023-09-19T02:29:04;14.99;63.87
78992;DHT22;72820;44.838;37.674;2023-09-19T02:30:06;14.93;63.87
78992;DHT22;72820;44.838;37.674;2023-09-19T02:31:07;14.94;63.97
78992;DHT22;72820;44.838;37.674;2023-09-19T02:32:09;14.93;63.95
78992;DHT22;72820;44.838;37.674;2023-09-19T02:33:11;14.93;63.92
78992;DHT22;72820;44.838;37.674;2023-09-19T02:34:12;14.90;64.04
78992;DHT22;72820;44.838;37.674;2023-09-19T02:35:15;14.89;64.03
78992;DHT22;72820;44.838;37.674;2023-09-19T02:36:17;14.86;64.05
78992;DHT22;72820;44.838;37.674;2023-09-19T02:37:18;14.87;64.12
78992;DHT22;72820;44.838;37.674;2023-09-19T02:38:20;14.84;64.28
78992;DHT22;72820;44.838;37.674;2023-09-19T02:39:25;14.83;64.41
78992;DHT22;72820;44.838;37.674;2023-09-19T02:40:27;14.80;64.39
78992;DHT22;72820;44.838;37.674;2023-09-19T02:41:29;14.80;64.40
78992;DHT22;72820;44.838;37.674;2023-09-19T02:42:30;14.82;64.48
78992;DHT22;72820;44.838;37.674;2023-09-19T02:43:32;14.82;64.40
78992;DHT22;72820;44.838;37.674;2023-09-19T02:44:33;14.83;64.29
78992;DHT22;72820;44.838;37.674;2023-09-19T02:45:35;14.80;64.38
78992;DHT22;72820;44.838;37.674;2023-09-19T02:46:36;14.83;64.39
78992;DHT22;72820;44.838;37.674;2023-09-19T02:47:40;14.83;64.46
78992;DHT22;72820;44.838;37.674;2023-09-19T02:48:41;14.82;64.48
78992;DHT22;72820;44.838;37.674;2023-09-19T02:49:43;14.79;64.56
78992;DHT22;72820;44.838;37.674;2023-09-19T02:50:54;14.79;64.67
78992;DHT22;72820;44.838;37.674;2023-09-19T02:51:55;14.79;64.63
78992;DHT22;72820;44.838;37.674;2023-09-19T02:52:59;14.79;64.61
78992;DHT22;72820;44.838;37.674;2023-09-19T02:54:01;14.75;64.70
78992;DHT22;72820;44.838;37.674;2023-09-19T02:55:04;14.75;64.71
78992;DHT22;72820;44.838;37.674;2023-09-19T02:56:07;14.73;64.63
78992;DHT22;72820;44.838;37.674;2023-09-19T02:57:09;14.72;64.89
78992;DHT22;72820;44.838;37.674;2023-09-19T02:58:10;14.70;64.89
78992;DHT22;72820;44.838;37.674;2023-09-19T02:59:13;14.73;64.87
78992;DHT22;72820;44.838;37.674;2023-09-19T03:00:16;14.70;64.85
78992;DHT22;72820;44.838;37.674;2023-09-19T03:01:23;14.72;64.86
78992;DHT22;72820;44.838;37.674;2023-09-19T03:02:25;14.72;64.91
78992;DHT22;72820;44.838;37.674;2023-09-19T03:03:29;14.73;64.94
78992;DHT22;72820;44.838;37.674;2023-09-19T03:04:30;14.72;65.07
78992;DHT22;72820;44.838;37.674;2023-09-19T03:05:32;14.69;64.86
78992;DHT22;72820;44.838;37.674;2023-09-19T03:06:34;14.69;65.06
78992;DHT22;72820;44.838;37.674;2023-09-19T03:07:35;14.65;65.03
78992;DHT22;72820;44.838;37.674;2023-09-19T03:08:39;14.63;65.15
78992;DHT22;72820;44.838;37.674;2023-09-19T03:09:43;14.65;65.13
78992;DHT22;72820;44.838;37.674;2023-09-19T03:10:47;14.63;65.23
78992;DHT22;72820;44.838;37.674;2023-09-19T03:11:49;14.65;65.19
78992;DHT22;72820;44.838;37.674;2023-09-19T03:12:51;14.61;65.25
78992;DHT22;72820;44.838;37.674;2023-09-19T03:13:53;14.58;65.36
78992;DHT22;72820;44.838;37.674;2023-09-19T03:14:56;14.58;65.42
78992;DHT22;72820;44.838;37.674;2023-09-19T03:15:57;14.55;65.49
78992;DHT22;72820;44.838;37.674;2023-09-19T03:17:02;14.49;65.61
78992;DHT22;72820;44.838;37.674;2023-09-19T03:18:07;14.51;65.72
78992;DHT22;72820;44.838;37.674;2023-09-19T03:19:09;14.51;65.81
78992;DHT22;72820;44.838;37.674;2023-09-19T03:20:12;14.49;65.76
78992;DHT22;72820;44.838;37.674;2023-09-19T03:21:16;14.49;65.80
78992;DHT22;72820;44.838;37.674;2023-09-19T03:22:18;14.46;65.83
78992;DHT22;72820;44.838;37.674;2023-09-19T03:23:20;14.51;65.93
78992;DHT22;72820;44.838;37.674;2023-09-19T03:24:21;14.49;65.79
78992;DHT22;72820;44.838;37.674;2023-09-19T03:25:23;14.51;65.99
78992;DHT22;72820;44.838;37.674;2023-09-19T03:26:27;14.49;65.82
78992;DHT22;72820;44.838;37.674;2023-09-19T03:27:28;14.49;65.83
78992;DHT22;72820;44.838;37.674;2023-09-19T03:28:29;14.51;65.84
78992;DHT22;72820;44.838;37.674;2023-09-19T03:29:34;14.51;65.70
78992;DHT22;72820;44.838;37.674;2023-09-19T03:30:35;14.49;65.84
78992;DHT22;72820;44.838;37.674;2023-09-19T03:31:39;14.49;65.90
78992;DHT22;72820;44.838;37.674;2023-09-19T03:32:46;14.45;65.85
78992;DHT22;72820;44.838;37.674;2023-09-19T03:33:51;14.48;65.96
78992;DHT22;72820;44.838;37.674;2023-09-19T03:34:52;14.48;65.95
78992;DHT22;72820;44.838;37.674;2023-09-19T03:35:53;14.46;65.86
78992;DHT22;72820;44.838;37.674;2023-09-19T03:36:55;14.46;65.96
78992;DHT22;72820;44.838;37.674;2023-09-19T03:37:56;14.46;66.05
78992;DHT22;72820;44.838;37.674;2023-09-19T03:38:59;14.48;65.90
78992;DHT22;72820;44.838;37.674;2023-09-19T03:40:01;14.46;65.82
78992;DHT22;72820;44.838;37.674;2023-09-19T03:41:07;14.46;66.04
78992;DHT22;72820;44.838;37.674;2023-09-19T03:42:10;14.46;65.96
78992;DHT22;72820;44.838;37.674;2023-09-19T03:43:12;14.49;65.98
78992;DHT22;72820;44.838;37.674;2023-09-19T03:44:14;14.49;66.03
78992;DHT22;72820;44.838;37.674;2023-09-19T03:45:16;14.51;65.88
78992;DHT22;72820;44.838;37.674;2023-09-19T03:46:25;14.51;65.87
78992;DHT22;72820;44.838;37.674;2023-09-19T03:47:28;14.49;65.91
78992;DHT22;72820;44.838;37.674;2023-09-19T03:48:31;14.49;65.99
78992;DHT22;72820;44.838;37.674;2023-09-19T03:49:33;14.49;65.88
78992;DHT22;72820;44.838;37.674;2023-09-19T03:50:35;14.52;65.88
78992;DHT22;72820;44.838;37.674;2023-09-19T03:51:37;14.51;65.86
78992;DHT22;72820;44.838;37.674;2023-09-19T03:52:39;14.52;65.93
78992;DHT22;72820;44.838;37.674;2023-09-19T03:53:41;14.55;65.88
78992;DHT22;72820;44.838;37.674;2023-09-19T03:54:43;14.53;66.00
78992;DHT22;72820;44.838;37.674;2023-09-19T03:55:45;14.56;65.87
78992;DHT22;72820;44.838;37.674;2023-09-19T03:56:47;14.56;65.66
78992;DHT22;72820;44.838;37.674;2023-09-19T03:57:48;14.59;65.74
78992;DHT22;72820;44.838;37.674;2023-09-19T03:58:51;14.56;65.82
78992;DHT22;72820;44.838;37.674;2023-09-19T03:59:53;14.59;65.69
78992;DHT22;72820;44.838;37.674;2023-09-19T04:00:56;14.65;65.82
78992;DHT22;72820;44.838;37.674;2023-09-19T04:01:57;14.65;65.54
78992;DHT22;72820;44.838;37.674;2023-09-19T04:02:59;14.68;65.57
78992;DHT22;72820;44.838;37.674;2023-09-19T04:04:03;14.72;65.42
78992;DHT22;72820;44.838;37.674;2023-09-19T04:05:12;14.72;65.25
78992;DHT22;72820;44.838;37.674;2023-09-19T04:06:14;14.73;65.34
78992;DHT22;72820;44.838;37.674;2023-09-19T04:07:16;14.75;65.16
78992;DHT22;72820;44.838;37.674;2023-09-19T04:08:18;14.76;65.11
78992;DHT22;72820;44.838;37.674;2023-09-19T04:09:19;14.79;65.06
78992;DHT22;72820;44.838;37.674;2023-09-19T04:10:21;14.80;65.04
78992;DHT22;72820;44.838;37.674;2023-09-19T04:11:22;14.77;65.19
78992;DHT22;72820;44.838;37.674;2023-09-19T04:12:24;14.79;65.15
78992;DHT22;72820;44.838;37.674;2023-09-19T04:13:26;14.80;65.27
78992;DHT22;72820;44.838;37.674;2023-09-19T04:14:27;14.83;64.91
78992;DHT22;72820;44.838;37.674;2023-09-19T04:15:29;14.84;64.71
78992;DHT22;72820;44.838;37.674;2023-09-19T04:16:30;14.90;64.72
78992;DHT22;72820;44.838;37.674;2023-09-19T04:17:32;14.90;64.91
78992;DHT22;72820;44.838;37.674;2023-09-19T04:18:35;14.90;64.77
78992;DHT22;72820;44.838;37.674;2023-09-19T04:19:39;14.90;64.76
78992;DHT22;72820;44.838;37.674;2023-09-19T04:20:48;14.91;64.57
78992;DHT22;72820;44.838;37.674;2023-09-19T04:21:50;14.91;64.68
78992;DHT22;72820;44.838;37.674;2023-09-19T04:22:51;14.94;64.59
78992;DHT22;72820;44.838;37.674;2023-09-19T04:23:53;14.96;64.69
78992;DHT22;72820;44.838;37.674;2023-09-19T04:24:54;14.97;64.73
78992;DHT22;72820;44.838;37.674;2023-09-19T04:25:56;15.01;64.59
78992;DHT22;72820;44.838;37.674;2023-09-19T04:26:58;15.04;64.33
78992;DHT22;72820;44.838;37.674;2023-09-19T04:28:03;15.04;64.30
78992;DHT22;72820;44.838;37.674;2023-09-19T04:29:05;15.07;64.18
78992;DHT22;72820;44.838;37.674;2023-09-19T04:30:07;15.10;64.14
78992;DHT22;72820;44.838;37.674;2023-09-19T04:31:12;15.12;64.02
78992;DHT22;72820;44.838;37.674;2023-09-19T04:32:15;15.16;64.08
78992;DHT22;72820;44.838;37.674;2023-09-19T04:33:18;15.21;64.07
78992;DHT22;72820;44.838;37.674;2023-09-19T04:34:19;15.24;63.96
78992;DHT22;72820;44.838;37.674;2023-09-19T04:35:21;15.28;63.95
78992;DHT22;72820;44.838;37.674;2023-09-19T04:36:22;15.30;63.93
78992;DHT22;72820;44.838;37.674;2023-09-19T04:37:24;15.36;63.80
78992;DHT22;72820;44.838;37.674;2023-09-19T04:38:25;15.38;63.84
78992;DHT22;72820;44.838;37.674;2023-09-19T04:39:29;15.44;63.62
78992;DHT22;72820;44.838;37.674;2023-09-19T04:40:30;15.49;63.47
78992;DHT22;72820;44.838;37.674;2023-09-19T04:41:33;15.52;63.41
78992;DHT22;72820;44.838;37.674;2023-09-19T04:42:35;15.58;63.18
78992;DHT22;72820;44.838;37.674;2023-09-19T04:43:36;15.58;63.41
78992;DHT22;72820;44.838;37.674;2023-09-19T04:44:38;15.62;63.28
78992;DHT22;72820;44.838;37.674;2023-09-19T04:45:39;15.66;63.15
78992;DHT22;72820;44.838;37.674;2023-09-19T04:46:43;15.67;63.31
78992;DHT22;72820;44.838;37.674;2023-09-19T04:47:45;15.72;62.77
78992;DHT22;72820;44.838;37.674;2023-09-19T04:48:48;15.76;62.71
78992;DHT22;72820;44.838;37.674;2023-09-19T04:49:49;15.82;62.95
78992;DHT22;72820;44.838;37.674;2023-09-19T04:50:50;15.83;62.80
78992;DHT22;72820;44.838;37.674;2023-09-19T04:51:52;15.89;61.99
78992;DHT22;72820;44.838;37.674;2023-09-19T04:52:53;15.93;61.90
78992;DHT22;72820;44.838;37.674;2023-09-19T04:53:55;15.97;62.09
78992;DHT22;72820;44.838;37.674;2023-09-19T04:54:56;16.00;61.74
78992;DHT22;72820;44.838;37.674;2023-09-19T04:55:58;16.04;61.35
78992;DHT22;72820;44.838;37.674;2023-09-19T04:56:59;16.10;61.81
78992;DHT22;72820;44.838;37.674;2023-09-19T04:58:04;16.10;61.80
78992;DHT22;72820;44.838;37.674;2023-09-19T04:59:05;16.14;61.41
78992;DHT22;72820;44.838;37.674;2023-09-19T05:00:06;16.21;61.28
78992;DHT22;72820;44.838;37.674;2023-09-19T05:01:13;16.21;60.92
78992;DHT22;72820;44.838;37.674;2023-09-19T05:02:16;16.25;61.50
78992;DHT22;72820;44.838;37.674;2023-09-19T05:03:17;16.27;60.96
78992;DHT22;72820;44.838;37.674;2023-09-19T05:04:18;16.27;60.39
78992;DHT22;72820;44.838;37.674;2023-09-19T05:05:20;16.34;60.64
78992;DHT22;72820;44.838;37.674;2023-09-19T05:06:23;16.41;59.57
78992;DHT22;72820;44.838;37.674;2023-09-19T05:07:24;16.41;59.93
78992;DHT22;72820;44.838;37.674;2023-09-19T05:08:27;16.47;60.14
78992;DHT22;72820;44.838;37.674;2023-09-19T05:09:29;16.48;60.17
78992;DHT22;72820;44.838;37.674;2023-09-19T05:10:30;16.49;59.73
78992;DHT22;72820;44.838;37.674;2023-09-19T05:11:32;16.53;59.90
78992;DHT22;72820;44.838;37.674;2023-09-19T05:12:34;16.55;59.70
78992;DHT22;72820;44.838;37.674;2023-09-19T05:13:38;16.61;59.62
78992;DHT22;72820;44.838;37.674;2023-09-19T05:14:40;16.65;59.31
78992;DHT22;72820;44.838;37.674;2023-09-19T05:15:41;16.70;60.01
78992;DHT22;72820;44.838;37.674;2023-09-19T05:16:42;16.70;60.28
78992;DHT22;72820;44.838;37.674;2023-09-19T05:17:51;16.77;59.43
78992;DHT22;72820;44.838;37.674;2023-09-19T05:18:52;16.80;59.47
78992;DHT22;72820;44.838;37.674;2023-09-19T05:19:54;16.84;58.08
78992;DHT22;72820;44.838;37.674;2023-09-19T05:20:55;16.89;58.52
78992;DHT22;72820;44.838;37.674;2023-09-19T05:21:57;16.94;58.85
78992;DHT22;72820;44.838;37.674;2023-09-19T05:23:02;16.96;59.20
78992;DHT22;72820;44.838;37.674;2023-09-19T05:24:06;17.03;57.18
78992;DHT22;72820;44.838;37.674;2023-09-19T05:25:07;17.08;57.87
78992;DHT22;72820;44.838;37.674;2023-09-19T05:26:09;17.11;57.70
78992;DHT22;72820;44.838;37.674;2023-09-19T05:27:11;17.14;58.03
78992;DHT22;72820;44.838;37.674;2023-09-19T05:28:13;17.18;57.32
78992;DHT22;72820;44.838;37.674;2023-09-19T05:29:16;17.21;56.92
78992;DHT22;72820;44.838;37.674;2023-09-19T05:30:17;17.23;56.93
78992;DHT22;72820;44.838;37.674;2023-09-19T05:31:19;17.30;57.21
78992;DHT22;72820;44.838;37.674;2023-09-19T05:32:20;17.35;57.59
78992;DHT22;72820;44.838;37.674;2023-09-19T05:33:21;17.38;56.42
78992;DHT22;72820;44.838;37.674;2023-09-19T05:34:23;17.36;56.72
78992;DHT22;72820;44.838;37.674;2023-09-19T05:35:26;17.42;55.90
78992;DHT22;72820;44.838;37.674;2023-09-19T05:36:27;17.45;56.04
78992;DHT22;72820;44.838;37.674;2023-09-19T05:37:31;17.45;55.93
78992;DHT22;72820;44.838;37.674;2023-09-19T05:38:32;17.46;55.37
78992;DHT22;72820;44.838;37.674;2023-09-19T05:39:33;17.48;55.09
78992;DHT22;72820;44.838;37.674;2023-09-19T05:40:35;17.49;55.61
78992;DHT22;72820;44.838;37.674;2023-09-19T05:41:36;17.53;55.34
78992;DHT22;72820;44.838;37.674;2023-09-19T05:42:41;17.56;55.00
78992;DHT22;72820;44.838;37.674;2023-09-19T05:43:43;17.59;54.96
78992;DHT22;72820;44.838;37.674;2023-09-19T05:44:44;17.63;55.07
78992;DHT22;72820;44.838;37.674;2023-09-19T05:45:46;17.66;55.17
78992;DHT22;72820;44.838;37.674;2023-09-19T05:46:47;17.69;55.34
78992;DHT22;72820;44.838;37.674;2023-09-19T05:47:49;17.70;54.48
78992;DHT22;72820;44.838;37.674;2023-09-19T05:48:52;17.75;54.92
78992;DHT22;72820;44.838;37.674;2023-09-19T05:49:53;17.78;54.56
78992;DHT22;72820;44.838;37.674;2023-09-19T05:50:54;17.80;54.60
78992;DHT22;72820;44.838;37.674;2023-09-19T05:51:55;17.87;54.62
78992;DHT22;72820;44.838;37.674;2023-09-19T05:52:58;17.90;54.34
78992;DHT22;72820;44.838;37.674;2023-09-19T05:53:59;17.96;54.30
78992;DHT22;72820;44.838;37.674;2023-09-19T05:55:00;18.01;53.59
78992;DHT22;72820;44.838;37.674;2023-09-19T05:56:02;18.03;53.61
78992;DHT22;72820;44.838;37.674;2023-09-19T05:57:03;18.08;53.77
78992;DHT22;72820;44.838;37.674;2023-09-19T05:58:05;18.10;53.37
78992;DHT22;72820;44.838;37.674;2023-09-19T05:59:06;18.17;52.94
78992;DHT22;72820;44.838;37.674;2023-09-19T06:00:08;18.21;53.73
78992;DHT22;72820;44.838;37.674;2023-09-19T06:01:13;18.27;52.44
78992;DHT22;72820;44.838;37.674;2023-09-19T06:02:14;18.31;52.76
78992;DHT22;72820;44.838;37.674;2023-09-19T06:03:16;18.35;52.82
78992;DHT22;72820;44.838;37.674;2023-09-19T06:04:18;18.40;52.83
78992;DHT22;72820;44.838;37.674;2023-09-19T06:05:21;18.42;52.02
78992;DHT22;72820;44.838;37.674;2023-09-19T06:06:22;18.45;51.58
78992;DHT22;72820;44.838;37.674;2023-09-19T06:07:25;18.51;50.85
78992;DHT22;72820;44.838;37.674;2023-09-19T06:08:28;18.53;51.47
78992;DHT22;72820;44.838;37.674;2023-09-19T06:09:29;18.58;51.23
78992;DHT22;72820;44.838;37.674;2023-09-19T06:10:33;18.61;51.69
78992;DHT22;72820;44.838;37.674;2023-09-19T06:11:35;18.65;51.84
78992;DHT22;72820;44.838;37.674;2023-09-19T06:12:41;18.69;51.07
78992;DHT22;72820;44.838;37.674;2023-09-19T06:13:44;18.73;50.94
78992;DHT22;72820;44.838;37.674;2023-09-19T06:14:48;18.80;50.58
78992;DHT22;72820;44.838;37.674;2023-09-19T06:15:50;18.85;51.16
78992;DHT22;72820;44.838;37.674;2023-09-19T06:16:53;18.89;51.05
78992;DHT22;72820;44.838;37.674;2023-09-19T06:17:55;18.93;51.02
78992;DHT22;72820;44.838;37.674;2023-09-19T06:18:58;18.99;49.95
78992;DHT22;72820;44.838;37.674;2023-09-19T06:20:00;19.02;49.25
78992;DHT22;72820;44.838;37.674;2023-09-19T06:21:05;19.07;51.43
78992;DHT22;72820;44.838;37.674;2023-09-19T06:22:08;19.11;49.26
78992;DHT22;72820;44.838;37.674;2023-09-19T06:23:10;19.13;49.36
78992;DHT22;72820;44.838;37.674;2023-09-19T06:24:11;19.20;49.06
78992;DHT22;72820;44.838;37.674;2023-09-19T06:25:14;19.24;49.08
78992;DHT22;72820;44.838;37.674;2023-09-19T06:26:26;19.34;48.91
78992;DHT22;72820;44.838;37.674;2023-09-19T06:27:28;19.36;48.71
78992;DHT22;72820;44.838;37.674;2023-09-19T06:28:30;19.41;49.06
78992;DHT22;72820;44.838;37.674;2023-09-19T06:29:31;19.45;48.67
78992;DHT22;72820;44.838;37.674;2023-09-19T06:30:33;19.54;49.10
78992;DHT22;72820;44.838;37.674;2023-09-19T06:31:35;19.59;48.88
78992;DHT22;72820;44.838;37.674;2023-09-19T06:32:36;19.65;49.30
78992;DHT22;72820;44.838;37.674;2023-09-19T06:33:38;19.70;48.19
78992;DHT22;72820;44.838;37.674;2023-09-19T06:34:40;19.76;47.97
78992;DHT22;72820;44.838;37.674;2023-09-19T06:35:44;19.80;48.48
78992;DHT22;72820;44.838;37.674;2023-09-19T06:36:47;19.85;47.45
78992;DHT22;72820;44.838;37.674;2023-09-19T06:37:49;19.92;47.88
78992;DHT22;72820;44.838;37.674;2023-09-19T06:38:52;19.93;47.48
78992;DHT22;72820;44.838;37.674;2023-09-19T06:39:53;19.98;46.97
78992;DHT22;72820;44.838;37.674;2023-09-19T06:40:55;19.98;47.09
78992;DHT22;72820;44.838;37.674;2023-09-19T06:41:56;20.00;46.99
78992;DHT22;72820;44.838;37.674;2023-09-19T06:42:58;20.03;47.13
78992;DHT22;72820;44.838;37.674;2023-09-19T06:43:59;20.07;47.88
78992;DHT22;72820;44.838;37.674;2023-09-19T06:45:00;20.10;47.79
78992;DHT22;72820;44.838;37.674;2023-09-19T06:46:02;20.14;47.70
78992;DHT22;72820;44.838;37.674;2023-09-19T06:47:03;20.20;46.97